createdAt,value
2023-01-06T00:00:42.804Z,3.28
2023-01-06T00:01:44.587Z,1.80
2023-01-06T00:02:48.264Z,1.90
2023-01-06T00:03:54.238Z,1.85
2023-01-06T00:04:56.152Z,1.85
2023-01-06T00:05:59.654Z,1.52
2023-01-06T00:07:02.626Z,1.50
2023-01-06T00:08:04.526Z,1.95
2023-01-06T00:09:07.846Z,1.75
2023-01-06T00:10:10.441Z,1.35
2023-01-06T00:11:14.780Z,1.60
2023-01-06T00:12:16.534Z,1.63
2023-01-06T00:13:19.798Z,1.60
2023-01-06T00:14:23.614Z,1.83
2023-01-06T00:15:26.397Z,2.67
2023-01-06T00:16:30.999Z,2.40
2023-01-06T00:17:33.365Z,2.08
2023-01-06T00:18:36.389Z,2.05
2023-01-06T00:19:38.209Z,2.13
2023-01-06T00:20:40.998Z,2.17
2023-01-06T00:21:42.859Z,1.70
2023-01-06T00:22:45.703Z,1.60
2023-01-06T00:23:47.485Z,2.00
2023-01-06T00:24:50.204Z,2.20
2023-01-06T00:25:53.119Z,2.20
2023-01-06T00:26:54.881Z,2.50
2023-01-06T00:27:57.725Z,2.03
2023-01-06T00:28:59.627Z,2.25
2023-01-06T00:30:02.420Z,1.85
2023-01-06T00:31:10.098Z,2.03
2023-01-06T00:32:14.553Z,1.60
2023-01-06T00:33:16.350Z,1.60
2023-01-06T00:34:19.261Z,2.00
2023-01-06T00:35:21.449Z,1.60
2023-01-06T00:36:24.465Z,1.70
2023-01-06T00:37:26.265Z,1.50
2023-01-06T00:38:29.131Z,1.60
2023-01-06T00:39:31.938Z,1.80
2023-01-06T00:40:33.735Z,1.35
2023-01-06T00:41:54.111Z,1.60
2023-01-06T00:42:56.831Z,1.48
2023-01-06T00:43:59.219Z,1.85
2023-01-06T00:45:02.177Z,1.30
2023-01-06T00:46:05.234Z,1.50
2023-01-06T00:47:11.397Z,1.60
2023-01-06T00:48:14.600Z,1.20
2023-01-06T00:49:18.863Z,1.90
2023-01-06T00:50:22.750Z,1.65
2023-01-06T00:51:25.023Z,1.70
2023-01-06T00:52:27.780Z,1.48
2023-01-06T00:53:29.570Z,1.70
2023-01-06T00:54:32.642Z,1.50
2023-01-06T00:55:34.605Z,1.67
2023-01-06T00:56:41.142Z,1.40
2023-01-06T00:57:44.152Z,1.60
2023-01-06T00:58:47.442Z,1.60
2023-01-06T00:59:50.207Z,1.60
2023-01-06T01:00:52.431Z,2.22
2023-01-06T01:01:57.443Z,1.40
2023-01-06T01:02:59.346Z,1.67
2023-01-06T01:04:04.159Z,1.58
2023-01-06T01:05:07.397Z,1.48
2023-01-06T01:06:10.563Z,2.00
2023-01-06T01:07:13.731Z,1.65
2023-01-06T01:08:15.536Z,1.67
2023-01-06T01:09:21.949Z,1.60
2023-01-06T01:10:24.149Z,1.60
2023-01-06T01:11:44.884Z,1.48
2023-01-06T01:12:50.124Z,1.50
2023-01-06T01:13:52.767Z,1.52
2023-01-06T01:14:55.839Z,1.52
2023-01-06T01:15:57.747Z,1.70
2023-01-06T01:17:00.808Z,1.60
2023-01-06T01:18:03.571Z,1.60
2023-01-06T01:19:07.189Z,1.50
2023-01-06T01:20:11.052Z,1.70
2023-01-06T01:21:12.940Z,1.65
2023-01-06T01:22:16.244Z,1.77
2023-01-06T01:23:22.607Z,1.80
2023-01-06T01:24:24.653Z,1.65
2023-01-06T01:25:27.390Z,1.98
2023-01-06T01:26:29.540Z,1.77
2023-01-06T01:27:32.748Z,2.00
2023-01-06T01:28:35.623Z,2.13
2023-01-06T01:29:38.437Z,1.80
2023-01-06T01:30:40.461Z,1.77
2023-01-06T01:31:44.899Z,1.98
2023-01-06T01:32:48.719Z,1.63
2023-01-06T01:33:51.825Z,1.83
2023-01-06T01:34:58.102Z,1.70
2023-01-06T01:36:05.757Z,1.63
2023-01-06T01:37:08.551Z,1.60
2023-01-06T01:38:11.599Z,1.70
2023-01-06T01:39:16.586Z,1.50
2023-01-06T01:40:20.059Z,1.80
2023-01-06T01:41:23.215Z,1.70
2023-01-06T01:42:26.114Z,1.65
2023-01-06T01:43:43.418Z,1.70
2023-01-06T01:44:54.670Z,1.80
2023-01-06T01:45:57.717Z,1.60
2023-01-06T01:46:59.763Z,1.50
2023-01-06T01:48:05.844Z,1.85
2023-01-06T01:49:12.969Z,1.48
2023-01-06T01:50:25.397Z,1.50
2023-01-06T01:51:31.595Z,1.67
2023-01-06T01:52:35.005Z,1.95
2023-01-06T01:53:41.509Z,1.90
2023-01-06T01:54:44.548Z,1.90
2023-01-06T01:55:49.354Z,2.70
2023-01-06T01:56:54.443Z,1.75
2023-01-06T01:58:00.886Z,1.70
2023-01-06T01:59:05.339Z,1.70
2023-01-06T02:00:10.008Z,1.98
2023-01-06T02:01:15.104Z,2.05
2023-01-06T02:02:19.391Z,2.47
2023-01-06T02:03:24.012Z,2.22
2023-01-06T02:04:28.632Z,2.55
2023-01-06T02:05:35.201Z,2.40
2023-01-06T02:06:38.126Z,1.70
2023-01-06T02:07:40.338Z,1.77
2023-01-06T02:08:47.447Z,1.70
2023-01-06T02:09:55.176Z,1.60
2023-01-06T02:10:58.111Z,1.77
2023-01-06T02:12:00.836Z,1.80
2023-01-06T02:13:03.993Z,2.13
2023-01-06T02:14:11.354Z,1.48
2023-01-06T02:15:19.408Z,1.80
2023-01-06T02:16:25.989Z,1.63
2023-01-06T02:17:43.309Z,1.70
2023-01-06T02:18:53.633Z,1.63
2023-01-06T02:20:29.906Z,1.80
2023-01-06T02:21:56.924Z,1.60
2023-01-06T02:23:34.935Z,2.10
2023-01-06T02:25:00.709Z,2.17
2023-01-06T02:26:55.309Z,2.10
2023-01-06T02:28:31.212Z,2.03
2023-01-06T02:30:16.635Z,2.20
2023-01-06T02:31:33.967Z,2.17
2023-01-06T02:33:03.434Z,2.10
2023-01-06T02:34:14.554Z,2.20
2023-01-06T02:35:47.447Z,2.10
2023-01-06T02:36:54.247Z,2.40
2023-01-06T02:38:07.608Z,2.15
2023-01-06T02:39:17.699Z,2.05
2023-01-06T02:40:30.657Z,2.10
2023-01-06T02:41:41.145Z,2.50
2023-01-06T02:42:47.919Z,2.20
2023-01-06T02:43:55.423Z,3.83
2023-01-06T02:45:04.711Z,1.90
2023-01-06T02:46:11.867Z,2.38
2023-01-06T02:47:22.115Z,2.40
2023-01-06T02:48:30.159Z,2.55
2023-01-06T02:49:38.480Z,2.10
2023-01-06T02:50:44.985Z,2.30
2023-01-06T02:51:51.717Z,3.30
2023-01-06T02:52:57.503Z,2.20
2023-01-06T02:54:07.045Z,4.70
2023-01-06T02:55:13.728Z,2.45
2023-01-06T02:56:18.899Z,2.88
2023-01-06T02:57:25.736Z,2.80
2023-01-06T02:58:30.709Z,2.80
2023-01-06T02:59:39.123Z,2.10
2023-01-06T03:00:44.004Z,2.42
2023-01-06T03:01:48.200Z,2.40
2023-01-06T03:02:57.008Z,3.20
2023-01-06T03:04:01.797Z,2.28
2023-01-06T03:05:07.134Z,2.40
2023-01-06T03:06:11.615Z,2.67
2023-01-06T03:07:34.015Z,2.65
2023-01-06T03:08:36.617Z,3.30
2023-01-06T03:09:39.771Z,2.38
2023-01-06T03:10:43.753Z,5.20
2023-01-06T03:11:50.135Z,2.83
2023-01-06T03:12:56.338Z,2.40
2023-01-06T03:14:04.812Z,2.65
2023-01-06T03:15:08.487Z,2.38
2023-01-06T03:16:16.391Z,2.78
2023-01-06T03:17:18.637Z,2.30
2023-01-06T03:18:22.858Z,2.65
2023-01-06T03:19:25.765Z,3.35
2023-01-06T03:20:28.065Z,4.25
2023-01-06T03:21:33.267Z,4.45
2023-01-06T03:22:38.707Z,3.00
2023-01-06T03:23:42.113Z,3.05
2023-01-06T03:24:45.113Z,3.75
2023-01-06T03:25:48.213Z,3.78
2023-01-06T03:26:52.787Z,2.72
2023-01-06T03:27:56.194Z,2.72
2023-01-06T03:28:59.539Z,3.20
2023-01-06T03:30:04.228Z,3.10
2023-01-06T03:31:14.428Z,3.13
2023-01-06T03:32:20.637Z,2.85
2023-01-06T03:33:26.669Z,2.67
2023-01-06T03:34:45.012Z,2.60
2023-01-06T03:35:56.541Z,2.90
2023-01-06T03:37:06.506Z,2.80
2023-01-06T03:38:14.497Z,2.90
2023-01-06T03:39:19.871Z,2.70
2023-01-06T03:40:29.750Z,3.40
2023-01-06T03:41:51.332Z,3.03
2023-01-06T03:43:16.510Z,2.58
2023-01-06T03:44:33.738Z,2.78
2023-01-06T03:45:59.367Z,3.80
2023-01-06T03:47:13.415Z,2.90
2023-01-06T03:48:21.256Z,2.70
2023-01-06T03:49:29.497Z,2.90
2023-01-06T03:50:36.896Z,6.70
2023-01-06T03:51:47.669Z,3.30
2023-01-06T03:52:57.046Z,3.55
2023-01-06T03:54:01.577Z,4.55
2023-01-06T03:55:07.484Z,4.63
2023-01-06T03:56:17.332Z,3.78
2023-01-06T03:57:22.870Z,3.33
2023-01-06T03:58:27.366Z,5.20
2023-01-06T03:59:31.640Z,3.30
2023-01-06T04:00:36.907Z,2.80
2023-01-06T04:01:43.980Z,3.20
2023-01-06T04:02:46.867Z,2.95
2023-01-06T04:03:54.326Z,4.15
2023-01-06T04:05:06.416Z,5.00
2023-01-06T04:06:09.168Z,5.35
2023-01-06T04:07:12.088Z,4.40
2023-01-06T04:08:17.903Z,3.53
2023-01-06T04:09:20.369Z,3.53
2023-01-06T04:10:24.505Z,3.30
2023-01-06T04:11:49.286Z,3.17
2023-01-06T04:12:52.014Z,3.30
2023-01-06T04:13:58.810Z,4.03
2023-01-06T04:15:01.184Z,3.35
2023-01-06T04:16:04.056Z,3.30
2023-01-06T04:17:06.014Z,3.70
2023-01-06T04:18:09.792Z,4.13
2023-01-06T04:19:14.336Z,4.00
2023-01-06T04:20:20.531Z,3.60
2023-01-06T04:21:24.848Z,3.50
2023-01-06T04:22:31.107Z,7.25
2023-01-06T04:23:33.540Z,6.85
2023-01-06T04:24:40.801Z,3.70
2023-01-06T04:25:44.811Z,3.42
2023-01-06T04:26:54.378Z,4.65
2023-01-06T04:27:57.440Z,3.80
2023-01-06T04:29:01.015Z,3.63
2023-01-06T04:30:03.249Z,3.65
2023-01-06T04:31:08.703Z,3.60
2023-01-06T04:32:16.340Z,3.65
2023-01-06T04:33:19.473Z,3.65
2023-01-06T04:34:23.748Z,3.78
2023-01-06T04:35:27.893Z,3.22
2023-01-06T04:36:31.485Z,3.20
2023-01-06T04:37:34.122Z,3.88
2023-01-06T04:38:37.415Z,3.65
2023-01-06T04:39:39.307Z,3.47
2023-01-06T04:40:43.756Z,3.50
2023-01-06T04:41:45.501Z,3.78
2023-01-06T04:43:06.233Z,3.63
2023-01-06T04:44:08.111Z,3.50
2023-01-06T04:45:11.277Z,3.65
2023-01-06T04:46:13.113Z,4.15
2023-01-06T04:47:15.915Z,4.90
2023-01-06T04:48:17.823Z,4.03
2023-01-06T04:49:21.010Z,4.88
2023-01-06T04:50:23.181Z,5.00
2023-01-06T04:51:27.596Z,4.78
2023-01-06T04:52:29.371Z,5.50
2023-01-06T04:53:35.555Z,6.57
2023-01-06T04:54:37.888Z,4.53
2023-01-06T04:55:40.997Z,5.70
2023-01-06T04:56:43.744Z,6.70
2023-01-06T04:57:46.728Z,7.93
2023-01-06T04:58:49.643Z,10.68
2023-01-06T04:59:51.720Z,5.45
2023-01-06T05:01:00.722Z,7.20
2023-01-06T05:02:03.862Z,4.50
2023-01-06T05:03:06.699Z,5.22
2023-01-06T05:04:08.692Z,4.15
2023-01-06T05:05:12.330Z,3.92
2023-01-06T05:06:15.723Z,4.07
2023-01-06T05:07:20.225Z,5.05
2023-01-06T05:08:22.024Z,3.90
2023-01-06T05:09:25.034Z,4.85
2023-01-06T05:10:26.868Z,6.60
2023-01-06T05:11:29.812Z,6.88
2023-01-06T05:12:32.128Z,5.28
2023-01-06T05:13:36.022Z,6.72
2023-01-06T05:14:40.786Z,7.57
2023-01-06T05:15:43.610Z,7.75
2023-01-06T05:16:45.456Z,10.40
2023-01-06T05:17:48.245Z,7.20
2023-01-06T05:18:50.227Z,7.68
2023-01-06T05:19:53.112Z,8.00
2023-01-06T05:20:55.636Z,12.18
2023-01-06T05:21:59.105Z,7.00
2023-01-06T05:23:03.125Z,8.20
2023-01-06T05:24:06.300Z,6.85
2023-01-06T05:25:09.443Z,6.85
2023-01-06T05:26:19.067Z,6.00
2023-01-06T05:27:20.894Z,6.03
2023-01-06T05:28:42.475Z,8.48
2023-01-06T05:29:44.391Z,6.97
2023-01-06T05:30:47.498Z,6.97
2023-01-06T05:31:50.576Z,6.38
2023-01-06T05:32:53.344Z,4.85
2023-01-06T05:33:56.612Z,5.63
2023-01-06T05:34:58.406Z,5.60
2023-01-06T05:36:02.125Z,6.13
2023-01-06T05:37:06.524Z,4.43
2023-01-06T05:38:10.627Z,4.20
2023-01-06T05:39:12.597Z,5.03
2023-01-06T05:40:15.368Z,4.35
2023-01-06T05:41:17.505Z,6.18
2023-01-06T05:42:20.793Z,6.35
2023-01-06T05:43:22.950Z,7.95
2023-01-06T05:44:25.783Z,6.03
2023-01-06T05:45:28.255Z,7.88
2023-01-06T05:46:31.063Z,6.70
2023-01-06T05:47:32.878Z,5.43
2023-01-06T05:48:36.045Z,5.20
2023-01-06T05:49:39.240Z,8.60
2023-01-06T05:50:41.228Z,7.85
2023-01-06T05:51:43.991Z,5.97
2023-01-06T05:52:45.760Z,8.20
2023-01-06T05:53:49.926Z,6.07
2023-01-06T05:54:51.817Z,5.47
2023-01-06T05:56:00.521Z,5.07
2023-01-06T05:57:02.264Z,6.85
2023-01-06T05:58:05.402Z,5.88
2023-01-06T05:59:08.613Z,5.72
2023-01-06T06:00:11.929Z,6.40
2023-01-06T06:01:19.283Z,9.02
2023-01-06T06:02:21.109Z,6.55
2023-01-06T06:03:23.901Z,5.97
2023-01-06T06:04:25.964Z,5.22
2023-01-06T06:05:29.116Z,6.50
2023-01-06T06:06:31.288Z,5.45
2023-01-06T06:07:34.129Z,6.22
2023-01-06T06:08:35.908Z,8.82
2023-01-06T06:09:40.343Z,11.23
2023-01-06T06:10:45.051Z,8.90
2023-01-06T06:11:51.691Z,7.90
2023-01-06T06:12:53.465Z,8.68
2023-01-06T06:13:58.750Z,6.97
2023-01-06T06:15:00.909Z,6.50
2023-01-06T06:16:05.532Z,5.00
2023-01-06T06:17:07.405Z,5.55
2023-01-06T06:18:10.481Z,7.15
2023-01-06T06:19:12.959Z,5.90
2023-01-06T06:20:16.467Z,7.47
2023-01-06T06:21:19.574Z,10.80
2023-01-06T06:22:22.340Z,6.78
2023-01-06T06:23:24.606Z,9.63
2023-01-06T06:24:27.333Z,6.95
2023-01-06T06:25:30.863Z,9.48
2023-01-06T06:26:34.000Z,9.70
2023-01-06T06:27:35.808Z,10.55
2023-01-06T06:28:39.302Z,10.18
2023-01-06T06:29:41.166Z,9.65
2023-01-06T06:30:43.904Z,6.68
2023-01-06T06:31:46.797Z,6.47
2023-01-06T06:32:48.665Z,5.18
2023-01-06T06:33:51.874Z,5.50
2023-01-06T06:34:53.606Z,6.30
2023-01-06T06:35:59.873Z,5.75
2023-01-06T06:37:02.680Z,5.22
2023-01-06T06:38:04.448Z,4.97
2023-01-06T06:39:07.252Z,5.28
2023-01-06T06:40:11.352Z,4.90
2023-01-06T06:41:14.767Z,6.18
2023-01-06T06:42:17.843Z,6.07
2023-01-06T06:43:19.677Z,6.25
2023-01-06T06:44:22.886Z,5.68
2023-01-06T06:45:25.086Z,5.72
2023-01-06T06:46:27.857Z,5.15
2023-01-06T06:47:30.086Z,5.95
2023-01-06T06:48:33.241Z,5.25
2023-01-06T06:49:35.997Z,5.43
2023-01-06T06:50:37.986Z,5.60
2023-01-06T06:51:40.904Z,5.22
2023-01-06T06:52:42.976Z,6.15
2023-01-06T06:53:45.948Z,5.63
2023-01-06T06:54:48.987Z,6.93
2023-01-06T06:55:50.731Z,7.22
2023-01-06T06:56:55.002Z,10.35
2023-01-06T06:57:56.993Z,13.60
2023-01-06T06:58:59.826Z,16.65
2023-01-06T07:00:01.775Z,13.80
2023-01-06T07:01:05.739Z,12.77
2023-01-06T07:02:08.645Z,9.82
2023-01-06T07:03:11.496Z,9.70
2023-01-06T07:04:13.427Z,8.80
2023-01-06T07:05:16.309Z,9.68
2023-01-06T07:06:20.128Z,10.75
2023-01-06T07:07:22.906Z,9.35
2023-01-06T07:08:24.839Z,8.63
2023-01-06T07:09:27.611Z,8.90
2023-01-06T07:10:29.466Z,9.60
2023-01-06T07:11:32.316Z,10.23
2023-01-06T07:12:35.461Z,9.95
2023-01-06T07:13:38.597Z,9.23
2023-01-06T07:14:40.510Z,12.10
2023-01-06T07:15:43.246Z,9.50
2023-01-06T07:16:46.060Z,9.23
2023-01-06T07:17:47.836Z,8.63
2023-01-06T07:18:50.767Z,9.90
2023-01-06T07:19:52.524Z,10.02
2023-01-06T07:20:55.315Z,10.75
2023-01-06T07:21:58.128Z,11.07
2023-01-06T07:23:00.161Z,10.82
2023-01-06T07:24:03.008Z,10.00
2023-01-06T07:25:06.074Z,10.02
2023-01-06T07:26:28.058Z,8.50
2023-01-06T07:27:29.838Z,9.13
2023-01-06T07:28:34.076Z,9.98
2023-01-06T07:29:36.917Z,9.68
2023-01-06T07:30:38.751Z,9.13
2023-01-06T07:31:41.467Z,10.02
2023-01-06T07:32:43.299Z,11.35
2023-01-06T07:33:46.061Z,10.23
2023-01-06T07:34:47.851Z,10.98
2023-01-06T07:35:53.726Z,10.25
2023-01-06T07:36:56.499Z,14.10
2023-01-06T07:38:03.313Z,14.85
2023-01-06T07:39:06.179Z,12.40
2023-01-06T07:40:10.066Z,9.70
2023-01-06T07:41:12.849Z,13.07
2023-01-06T07:42:15.049Z,13.63
2023-01-06T07:43:17.994Z,9.05
2023-01-06T07:44:21.137Z,10.00
2023-01-06T07:45:24.100Z,11.32
2023-01-06T07:46:25.870Z,10.90
2023-01-06T07:47:28.679Z,11.30
2023-01-06T07:48:30.487Z,13.50
2023-01-06T07:49:33.272Z,8.68
2023-01-06T07:50:36.099Z,9.40
2023-01-06T07:51:38.973Z,11.70
2023-01-06T07:52:40.926Z,10.50
2023-01-06T07:53:43.834Z,10.63
2023-01-06T07:54:46.660Z,16.42
2023-01-06T07:55:53.611Z,41.28
2023-01-06T07:56:55.472Z,41.42
2023-01-06T07:57:59.578Z,16.98
2023-01-06T07:59:01.377Z,14.05
2023-01-06T08:00:06.528Z,17.30
2023-01-06T08:01:14.924Z,13.63
2023-01-06T08:02:16.732Z,12.20
2023-01-06T08:03:19.784Z,25.48
2023-01-06T08:04:21.889Z,10.35
2023-01-06T08:05:24.686Z,6.47
2023-01-06T08:06:26.450Z,6.47
2023-01-06T08:07:29.407Z,7.30
2023-01-06T08:08:31.173Z,9.27
2023-01-06T08:09:33.923Z,6.80
2023-01-06T08:10:39.255Z,6.43
2023-01-06T08:11:42.072Z,6.63
2023-01-06T08:12:43.832Z,7.15
2023-01-06T08:13:46.955Z,6.38
2023-01-06T08:14:48.724Z,6.68
2023-01-06T08:15:53.008Z,5.93
2023-01-06T08:16:54.960Z,6.22
2023-01-06T08:17:57.787Z,6.60
2023-01-06T08:18:59.598Z,7.38
2023-01-06T08:20:02.626Z,6.13
2023-01-06T08:21:07.225Z,6.82
2023-01-06T08:22:09.977Z,6.80
2023-01-06T08:23:12.872Z,6.30
2023-01-06T08:24:14.637Z,6.15
2023-01-06T08:25:17.602Z,6.80
2023-01-06T08:26:19.748Z,7.05
2023-01-06T08:27:23.521Z,6.35
2023-01-06T08:28:25.363Z,7.00
2023-01-06T08:29:28.990Z,7.00
2023-01-06T08:30:30.791Z,7.25
2023-01-06T08:31:35.118Z,8.20
2023-01-06T08:32:37.005Z,7.45
2023-01-06T08:33:39.803Z,8.95
2023-01-06T08:34:41.611Z,7.53
2023-01-06T08:35:46.826Z,8.90
2023-01-06T08:36:49.579Z,7.50
2023-01-06T08:37:51.718Z,7.30
2023-01-06T08:38:55.157Z,7.38
2023-01-06T08:39:56.908Z,7.57
2023-01-06T08:41:00.649Z,10.07
2023-01-06T08:42:02.920Z,9.32
2023-01-06T08:43:05.743Z,7.32
2023-01-06T08:44:08.810Z,8.65
2023-01-06T08:45:13.055Z,7.47
2023-01-06T08:46:17.762Z,7.45
2023-01-06T08:47:21.873Z,6.72
2023-01-06T08:48:23.983Z,6.80
2023-01-06T08:49:26.726Z,6.90
2023-01-06T08:50:29.506Z,7.10
2023-01-06T08:51:32.631Z,7.05
2023-01-06T08:52:34.447Z,6.55
2023-01-06T08:53:37.366Z,6.47
2023-01-06T08:54:39.330Z,6.65
2023-01-06T08:55:42.845Z,9.07
2023-01-06T08:56:45.651Z,7.50
2023-01-06T08:57:47.530Z,7.28
2023-01-06T08:58:52.997Z,6.90
2023-01-06T08:59:55.714Z,7.07
2023-01-06T09:00:58.419Z,7.13
2023-01-06T09:02:02.128Z,6.50
2023-01-06T09:03:06.493Z,7.30
2023-01-06T09:04:09.764Z,7.47
2023-01-06T09:05:12.641Z,7.28
2023-01-06T09:06:15.077Z,7.13
2023-01-06T09:07:17.827Z,7.45
2023-01-06T09:08:19.742Z,6.72
2023-01-06T09:09:22.898Z,6.68
2023-01-06T09:10:24.982Z,6.65
2023-01-06T09:11:27.912Z,6.80
2023-01-06T09:12:30.702Z,7.35
2023-01-06T09:13:32.582Z,6.55
2023-01-06T09:14:35.463Z,6.20
2023-01-06T09:15:41.028Z,6.25
2023-01-06T09:16:43.887Z,6.53
2023-01-06T09:17:46.624Z,6.38
2023-01-06T09:18:51.513Z,7.07
2023-01-06T09:19:53.518Z,7.28
2023-01-06T09:20:56.222Z,6.82
2023-01-06T09:22:00.326Z,6.47
2023-01-06T09:23:03.613Z,6.47
2023-01-06T09:24:06.967Z,7.47
2023-01-06T09:25:09.063Z,6.57
2023-01-06T09:26:12.165Z,6.28
2023-01-06T09:27:14.940Z,7.15
2023-01-06T09:28:17.004Z,7.18
2023-01-06T09:29:21.315Z,8.60
2023-01-06T09:30:25.306Z,7.28
2023-01-06T09:31:28.121Z,7.28
2023-01-06T09:32:30.987Z,7.10
2023-01-06T09:33:32.880Z,7.38
2023-01-06T09:34:36.991Z,7.78
2023-01-06T09:35:38.827Z,7.43
2023-01-06T09:36:41.683Z,6.93
2023-01-06T09:37:43.448Z,6.10
2023-01-06T09:38:46.239Z,5.50
2023-01-06T09:39:47.986Z,5.68
2023-01-06T09:41:00.639Z,6.53
2023-01-06T09:42:15.330Z,6.63
2023-01-06T09:43:27.076Z,6.13
2023-01-06T09:44:31.607Z,6.78
2023-01-06T09:45:36.332Z,6.70
2023-01-06T09:46:42.182Z,6.18
2023-01-06T09:47:49.113Z,6.20
2023-01-06T09:48:57.969Z,6.15
2023-01-06T09:50:04.929Z,6.00
2023-01-06T09:51:07.123Z,5.10
2023-01-06T09:52:15.316Z,4.95
2023-01-06T09:53:21.159Z,5.15
2023-01-06T09:54:25.108Z,5.45
2023-01-06T09:55:32.387Z,5.13
2023-01-06T09:56:35.176Z,4.38
2023-01-06T09:57:41.327Z,4.53
2023-01-06T09:58:48.209Z,5.13
2023-01-06T09:59:55.017Z,4.65
2023-01-06T10:00:57.863Z,5.03
2023-01-06T10:02:02.010Z,4.20
2023-01-06T10:03:04.528Z,4.32
2023-01-06T10:04:07.511Z,3.80
2023-01-06T10:05:20.229Z,4.18
2023-01-06T10:06:30.848Z,4.28
2023-01-06T10:07:39.242Z,4.68
2023-01-06T10:08:47.325Z,4.35
2023-01-06T10:09:56.522Z,3.72
2023-01-06T10:11:13.866Z,3.83
2023-01-06T10:12:30.041Z,4.25
2023-01-06T10:13:44.373Z,3.28
2023-01-06T10:14:54.941Z,3.35
2023-01-06T10:16:04.694Z,4.13
2023-01-06T10:17:21.973Z,3.63
2023-01-06T10:18:33.936Z,3.60
2023-01-06T10:19:49.084Z,3.63
2023-01-06T10:21:06.761Z,3.47
2023-01-06T10:22:14.407Z,3.28
2023-01-06T10:23:27.769Z,3.35
2023-01-06T10:24:37.340Z,3.75
2023-01-06T10:25:43.016Z,3.30
2023-01-06T10:26:45.860Z,3.55
2023-01-06T10:27:52.635Z,3.15
2023-01-06T10:28:57.308Z,3.10
2023-01-06T10:30:01.303Z,3.00
2023-01-06T10:31:06.708Z,3.22
2023-01-06T10:32:15.593Z,3.50
2023-01-06T10:34:35.643Z,3.10
2023-01-06T10:35:38.440Z,2.75
2023-01-06T10:36:45.728Z,3.17
2023-01-06T10:37:50.190Z,2.97
2023-01-06T10:38:54.242Z,3.28
2023-01-06T10:40:01.305Z,3.97
2023-01-06T10:41:15.693Z,3.72
2023-01-06T10:42:43.060Z,3.15
2023-01-06T10:43:49.397Z,3.40
2023-01-06T10:44:52.231Z,3.35
2023-01-06T10:45:55.556Z,3.83
2023-01-06T10:46:58.365Z,3.85
2023-01-06T10:48:01.821Z,3.22
2023-01-06T10:49:06.737Z,3.70
2023-01-06T10:50:13.771Z,3.83
2023-01-06T10:51:34.707Z,3.35
2023-01-06T10:52:39.256Z,3.45
2023-01-06T10:53:42.086Z,4.00
2023-01-06T10:54:44.478Z,3.80
2023-01-06T10:55:48.308Z,3.15
2023-01-06T10:56:54.551Z,3.45
2023-01-06T10:57:59.178Z,3.53
2023-01-06T10:59:07.702Z,3.58
2023-01-06T11:00:14.312Z,3.88
2023-01-06T11:01:23.941Z,3.25
2023-01-06T11:02:25.881Z,3.28
2023-01-06T11:03:34.201Z,3.15
2023-01-06T11:04:51.650Z,3.42
2023-01-06T11:06:01.716Z,3.70
2023-01-06T11:07:07.293Z,3.90
2023-01-06T11:08:31.329Z,3.45
2023-01-06T11:09:39.986Z,3.30
2023-01-06T11:10:44.937Z,4.35
2023-01-06T11:11:48.835Z,4.00
2023-01-06T11:12:52.094Z,3.72
2023-01-06T11:13:57.226Z,3.40
2023-01-06T11:15:00.892Z,3.92
2023-01-06T11:16:05.803Z,3.55
2023-01-06T11:17:11.289Z,3.75
2023-01-06T11:18:21.532Z,3.45
2023-01-06T11:19:32.121Z,3.38
2023-01-06T11:20:36.090Z,3.22
2023-01-06T11:21:41.104Z,3.05
2023-01-06T11:22:43.749Z,3.55
2023-01-06T11:23:49.052Z,3.30
2023-01-06T11:24:54.167Z,3.30
2023-01-06T11:26:17.875Z,3.50
2023-01-06T11:27:20.673Z,3.75
2023-01-06T11:28:22.519Z,3.03
2023-01-06T11:29:28.098Z,4.35
2023-01-06T11:30:30.102Z,3.70
2023-01-06T11:31:32.924Z,9.15
2023-01-06T11:32:34.896Z,3.70
2023-01-06T11:33:39.121Z,2.83
2023-01-06T11:34:44.999Z,3.05
2023-01-06T11:35:49.239Z,4.03
2023-01-06T11:36:52.606Z,3.55
2023-01-06T11:37:57.575Z,3.08
2023-01-06T11:39:03.623Z,4.47
2023-01-06T11:40:19.134Z,3.78
2023-01-06T11:41:26.131Z,3.53
2023-01-06T11:42:27.959Z,3.97
2023-01-06T11:43:33.001Z,4.10
2023-01-06T11:44:39.048Z,4.13
2023-01-06T11:45:44.707Z,4.88
2023-01-06T11:46:50.113Z,5.28
2023-01-06T11:47:53.021Z,5.00
2023-01-06T11:49:00.702Z,4.60
2023-01-06T11:50:04.268Z,4.50
2023-01-06T11:51:08.860Z,4.78
2023-01-06T11:52:22.572Z,4.80
2023-01-06T11:53:24.689Z,3.83
2023-01-06T11:54:34.011Z,3.85
2023-01-06T11:55:35.838Z,4.25
2023-01-06T11:56:38.953Z,3.78
2023-01-06T11:57:47.240Z,4.55
2023-01-06T11:58:55.116Z,4.38
2023-01-06T12:00:12.611Z,4.15
2023-01-06T12:01:18.698Z,4.40
2023-01-06T12:02:24.485Z,4.43
2023-01-06T12:03:33.080Z,4.00
2023-01-06T12:04:39.407Z,3.88
2023-01-06T12:05:48.089Z,4.05
2023-01-06T12:06:53.552Z,4.60
2023-01-06T12:07:57.672Z,4.72
2023-01-06T12:09:03.076Z,4.68
2023-01-06T12:10:12.737Z,4.90
2023-01-06T12:11:19.812Z,5.25
2023-01-06T12:12:27.454Z,5.50
2023-01-06T12:13:29.774Z,5.10
2023-01-06T12:14:36.816Z,5.15
2023-01-06T12:15:40.809Z,6.05
2023-01-06T12:16:50.835Z,5.95
2023-01-06T12:17:55.581Z,6.30
2023-01-06T12:18:58.510Z,6.10
2023-01-06T12:20:03.943Z,5.57
2023-01-06T12:21:05.996Z,5.60
2023-01-06T12:22:20.569Z,5.53
2023-01-06T12:23:27.767Z,5.45
2023-01-06T12:24:33.249Z,5.22
2023-01-06T12:25:39.951Z,5.40
2023-01-06T12:26:43.208Z,6.00
2023-01-06T12:27:50.239Z,6.18
2023-01-06T12:28:54.225Z,6.55
2023-01-06T12:30:00.013Z,6.43
2023-01-06T12:31:08.478Z,6.13
2023-01-06T12:32:15.060Z,6.35
2023-01-06T12:33:20.786Z,5.80
2023-01-06T12:34:24.792Z,6.30
2023-01-06T12:35:30.343Z,5.95
2023-01-06T12:36:36.509Z,5.32
2023-01-06T12:37:42.353Z,6.18
2023-01-06T12:38:52.136Z,6.03
2023-01-06T12:39:58.879Z,4.97
2023-01-06T12:41:04.526Z,5.93
2023-01-06T12:42:15.000Z,5.57
2023-01-06T12:43:18.745Z,6.07
2023-01-06T12:44:34.344Z,6.38
2023-01-06T12:45:46.686Z,5.68
2023-01-06T12:46:57.764Z,5.63
2023-01-06T12:47:59.706Z,5.88
2023-01-06T12:49:05.292Z,5.97
2023-01-06T12:50:12.383Z,6.65
2023-01-06T12:51:17.076Z,6.05
2023-01-06T12:52:24.752Z,5.45
2023-01-06T12:53:29.325Z,6.03
2023-01-06T12:54:33.977Z,5.70
2023-01-06T12:55:41.275Z,6.38
2023-01-06T12:57:01.561Z,5.20
2023-01-06T12:58:08.541Z,6.15
2023-01-06T12:59:19.675Z,5.78
2023-01-06T13:00:40.271Z,6.43
2023-01-06T13:01:46.244Z,5.72
2023-01-06T13:02:57.898Z,5.30
2023-01-06T13:04:10.650Z,5.60
2023-01-06T13:05:47.203Z,5.40
2023-01-06T13:07:07.777Z,6.43
2023-01-06T13:08:22.639Z,5.57
2023-01-06T13:09:40.359Z,6.13
2023-01-06T13:10:44.323Z,6.07
2023-01-06T13:12:10.956Z,6.25
2023-01-06T13:13:40.543Z,6.70
2023-01-06T13:14:46.143Z,6.85
2023-01-06T13:15:49.041Z,6.88
2023-01-06T13:16:56.446Z,5.85
2023-01-06T13:18:05.802Z,6.68
2023-01-06T13:19:17.720Z,6.82
2023-01-06T13:20:24.169Z,7.03
2023-01-06T13:21:27.644Z,6.85
2023-01-06T13:22:42.386Z,6.47
2023-01-06T13:23:59.223Z,6.35
2023-01-06T13:25:24.076Z,6.70
2023-01-06T13:26:44.744Z,6.78
2023-01-06T13:27:55.876Z,6.75
2023-01-06T13:29:05.103Z,6.72
2023-01-06T13:30:16.815Z,6.93
2023-01-06T13:31:33.449Z,6.13
2023-01-06T13:33:03.062Z,7.00
2023-01-06T13:34:32.342Z,6.57
2023-01-06T13:36:05.072Z,6.70
2023-01-06T13:37:31.066Z,7.65
2023-01-06T13:38:44.155Z,7.43
2023-01-06T13:39:48.823Z,6.80
2023-01-06T13:40:52.734Z,6.75
2023-01-06T13:41:58.312Z,7.45
2023-01-06T13:43:05.156Z,6.90
2023-01-06T13:44:15.186Z,7.45
2023-01-06T13:45:20.192Z,7.43
2023-01-06T13:46:24.780Z,7.10
2023-01-06T13:47:26.728Z,7.28
2023-01-06T13:48:31.458Z,7.25
2023-01-06T13:49:34.378Z,7.25
2023-01-06T13:50:38.393Z,7.70
2023-01-06T13:51:42.401Z,7.57
2023-01-06T13:52:44.794Z,8.40
2023-01-06T13:53:50.754Z,7.20
2023-01-06T13:55:05.498Z,7.95
2023-01-06T13:56:28.971Z,7.10
2023-01-06T13:57:33.675Z,7.30
2023-01-06T13:58:38.515Z,6.13
2023-01-06T13:59:49.781Z,6.93
2023-01-06T14:01:06.388Z,6.85
2023-01-06T14:02:47.514Z,7.20
2023-01-06T14:03:51.774Z,7.10
2023-01-06T14:04:53.657Z,6.95
2023-01-06T14:05:58.579Z,6.43
2023-01-06T14:07:00.765Z,7.10
2023-01-06T14:08:04.811Z,8.00
2023-01-06T14:09:18.116Z,7.28
2023-01-06T14:10:33.211Z,7.22
2023-01-06T14:11:37.678Z,7.50
2023-01-06T14:12:39.469Z,6.45
2023-01-06T14:13:44.302Z,6.93
2023-01-06T14:14:58.355Z,6.50
2023-01-06T14:16:05.328Z,6.18
2023-01-06T14:17:28.498Z,6.68
2023-01-06T14:18:33.124Z,6.80
2023-01-06T14:19:38.156Z,6.70
2023-01-06T14:20:40.267Z,6.97
2023-01-06T14:21:43.324Z,6.75
2023-01-06T14:22:46.751Z,7.00
2023-01-06T14:23:54.916Z,6.65
2023-01-06T14:24:59.035Z,6.57
2023-01-06T14:26:01.817Z,6.38
2023-01-06T14:27:07.133Z,6.85
2023-01-06T14:28:25.648Z,6.95
2023-01-06T14:30:06.850Z,7.20
2023-01-06T14:31:46.520Z,7.15
2023-01-06T14:33:04.144Z,7.13
2023-01-06T14:34:11.133Z,6.95
2023-01-06T14:35:14.715Z,7.22
2023-01-06T14:36:18.471Z,6.88
2023-01-06T14:37:25.686Z,6.75
2023-01-06T14:38:30.507Z,6.72